createdAt,value
2018-04-06T00:00:25.541Z,11.20
2018-04-06T00:02:53.754Z,9.70
2018-04-06T00:05:21.968Z,6.77
2018-04-06T00:07:50.185Z,6.20
2018-04-06T00:10:19.158Z,6.20
2018-04-06T00:12:47.468Z,6.20
2018-04-06T00:15:15.660Z,11.10
2018-04-06T00:17:43.942Z,7.93
2018-04-06T00:20:12.399Z,6.83
2018-04-06T00:22:41.386Z,6.33
2018-04-06T00:25:10.347Z,5.17
2018-04-06T00:27:38.648Z,6.70
2018-04-06T00:30:07.840Z,7.97
2018-04-06T00:32:36.033Z,6.93
2018-04-06T00:35:04.327Z,6.63
2018-04-06T00:37:33.269Z,7.03
2018-04-06T00:40:02.602Z,7.43
2018-04-06T00:42:30.834Z,6.80
2018-04-06T00:44:59.126Z,6.57
2018-04-06T00:47:28.177Z,6.60
2018-04-06T00:49:57.293Z,6.97
2018-04-06T00:52:25.512Z,6.83
2018-04-06T00:54:54.477Z,6.33
2018-04-06T00:57:22.689Z,6.03
2018-04-06T00:59:50.917Z,8.03
2018-04-06T01:02:19.231Z,8.27
2018-04-06T01:04:47.448Z,7.03
2018-04-06T01:07:15.649Z,7.50
2018-04-06T01:09:43.861Z,6.97
2018-04-06T01:12:12.123Z,7.17
2018-04-06T01:14:41.130Z,6.07
2018-04-06T01:17:09.330Z,5.57
2018-04-06T01:19:37.562Z,6.90
2018-04-06T01:22:05.777Z,7.40
2018-04-06T01:24:34.022Z,6.97
2018-04-06T01:27:02.224Z,6.03
2018-04-06T01:29:30.450Z,6.30
2018-04-06T01:31:58.636Z,5.70
2018-04-06T01:34:27.673Z,6.13
2018-04-06T01:36:55.881Z,5.73
2018-04-06T01:39:24.180Z,5.67
2018-04-06T01:41:53.166Z,4.83
2018-04-06T01:44:23.033Z,5.47
2018-04-06T01:46:52.777Z,5.90
2018-04-06T01:49:22.625Z,6.00
2018-04-06T01:51:52.365Z,4.93
2018-04-06T01:54:22.133Z,5.47
2018-04-06T01:56:51.865Z,5.30
2018-04-06T01:59:21.681Z,6.03
2018-04-06T02:01:51.413Z,5.33
2018-04-06T02:04:21.162Z,5.03
2018-04-06T02:06:50.889Z,5.43
2018-04-06T02:09:20.705Z,5.50
2018-04-06T02:11:50.534Z,4.70
2018-04-06T02:14:20.287Z,5.57
2018-04-06T02:16:50.028Z,5.60
2018-04-06T02:19:19.766Z,5.63
2018-04-06T02:21:49.492Z,4.67
2018-04-06T02:24:19.238Z,4.80
2018-04-06T02:26:48.988Z,7.20
2018-04-06T02:29:18.805Z,4.60
2018-04-06T02:31:48.531Z,4.27
2018-04-06T02:34:18.321Z,4.00
2018-04-06T02:36:48.052Z,4.93
2018-04-06T02:39:17.784Z,5.10
2018-04-06T02:41:47.511Z,6.40
2018-04-06T02:44:17.360Z,5.57
2018-04-06T02:46:47.095Z,5.13
2018-04-06T02:49:16.846Z,7.17
2018-04-06T02:51:46.589Z,5.17
2018-04-06T02:54:16.326Z,5.00
2018-04-06T02:56:46.129Z,5.27
2018-04-06T02:59:15.920Z,4.40
2018-04-06T03:01:45.665Z,4.50
2018-04-06T03:04:15.399Z,4.50
2018-04-06T03:06:45.149Z,4.73
2018-04-06T03:09:14.888Z,5.13
2018-04-06T03:11:44.708Z,4.97
2018-04-06T03:14:14.449Z,5.17
2018-04-06T03:16:44.183Z,4.60
2018-04-06T03:19:14.002Z,5.43
2018-04-06T03:21:43.753Z,4.40
2018-04-06T03:24:13.525Z,5.00
2018-04-06T03:26:43.273Z,4.67
2018-04-06T03:29:13.093Z,5.27
2018-04-06T03:31:42.854Z,5.33
2018-04-06T03:34:12.747Z,4.80
2018-04-06T03:36:42.464Z,5.10
2018-04-06T03:39:12.182Z,4.60
2018-04-06T03:41:41.929Z,6.13
2018-04-06T03:44:11.712Z,5.33
2018-04-06T03:46:41.524Z,4.83
2018-04-06T03:49:11.283Z,5.57
2018-04-06T03:51:41.008Z,5.00
2018-04-06T03:54:10.753Z,5.83
2018-04-06T03:56:40.486Z,5.00
2018-04-06T03:59:10.253Z,5.13
2018-04-06T04:01:40.588Z,5.97
2018-04-06T04:04:10.336Z,5.33
2018-04-06T04:06:40.096Z,5.20
2018-04-06T04:09:09.834Z,5.50
2018-04-06T04:11:39.607Z,5.73
2018-04-06T04:14:09.360Z,4.70
2018-04-06T04:16:39.088Z,4.40
2018-04-06T04:19:08.847Z,4.87
2018-04-06T04:21:38.691Z,5.60
2018-04-06T04:24:08.448Z,6.20
2018-04-06T04:26:39.083Z,4.90
2018-04-06T04:29:08.825Z,5.40
2018-04-06T04:31:38.657Z,5.10
2018-04-06T04:34:08.413Z,4.80
2018-04-06T04:36:38.174Z,5.13
2018-04-06T04:39:07.933Z,5.10
2018-04-06T04:41:37.657Z,5.50
2018-04-06T04:44:07.409Z,5.30
2018-04-06T04:46:37.129Z,5.60
2018-04-06T04:49:06.889Z,5.33
2018-04-06T04:51:36.630Z,4.67
2018-04-06T04:54:06.360Z,5.03
2018-04-06T04:56:36.161Z,4.90
2018-04-06T04:59:05.925Z,5.50
2018-04-06T05:01:35.690Z,5.43
2018-04-06T05:04:05.512Z,5.60
2018-04-06T05:06:35.257Z,6.17
2018-04-06T05:09:05.770Z,6.30
2018-04-06T05:11:35.640Z,6.17
2018-04-06T05:14:05.334Z,5.10
2018-04-06T05:16:35.162Z,5.20
2018-04-06T05:19:04.973Z,5.47
2018-04-06T05:21:34.760Z,5.67
2018-04-06T05:24:04.591Z,6.50
2018-04-06T05:26:34.349Z,6.40
2018-04-06T05:29:04.119Z,5.80
2018-04-06T05:31:33.930Z,6.10
2018-04-06T05:34:03.666Z,6.00
2018-04-06T05:36:33.409Z,5.17
2018-04-06T05:39:03.169Z,6.47
2018-04-06T05:41:32.968Z,6.47
2018-04-06T05:44:02.756Z,5.97
2018-04-06T05:46:32.505Z,5.80
2018-04-06T05:49:02.241Z,6.53
2018-04-06T05:51:31.987Z,5.93
2018-04-06T05:54:01.717Z,5.93
2018-04-06T05:56:31.465Z,6.17
2018-04-06T05:59:01.193Z,6.80
2018-04-06T06:01:30.946Z,5.47
2018-04-06T06:04:00.684Z,5.50
2018-04-06T06:06:30.445Z,5.80
2018-04-06T06:09:00.197Z,5.43
2018-04-06T06:11:30.006Z,5.60
2018-04-06T06:13:59.750Z,6.03
2018-04-06T06:16:29.489Z,6.10
2018-04-06T06:18:59.236Z,6.63
2018-04-06T06:21:28.989Z,5.97
2018-04-06T06:23:58.753Z,5.90
2018-04-06T06:26:28.816Z,5.73
2018-04-06T06:28:58.568Z,5.20
2018-04-06T06:31:28.296Z,5.70
2018-04-06T06:33:58.041Z,6.23
2018-04-06T06:36:27.801Z,5.33
2018-04-06T06:38:57.560Z,5.03
2018-04-06T06:41:27.347Z,5.70
2018-04-06T06:43:57.108Z,4.50
2018-04-06T06:46:26.849Z,4.67
2018-04-06T06:48:56.603Z,4.63
2018-04-06T06:51:26.326Z,4.97
2018-04-06T06:53:56.079Z,4.57
2018-04-06T06:56:25.808Z,5.00
2018-04-06T06:58:55.558Z,4.70
2018-04-06T07:01:25.285Z,4.93
2018-04-06T07:03:55.122Z,5.37
2018-04-06T07:06:24.865Z,7.53
2018-04-06T07:08:54.601Z,5.47
2018-04-06T07:11:24.340Z,6.03
2018-04-06T07:13:54.163Z,4.40
2018-04-06T07:16:23.914Z,6.30
2018-04-06T07:18:53.672Z,5.97
2018-04-06T07:21:23.448Z,4.30
2018-04-06T07:23:53.172Z,5.43
2018-04-06T07:26:22.923Z,6.10
2018-04-06T07:28:52.820Z,4.37
2018-04-06T07:31:22.560Z,4.47
2018-04-06T07:33:52.454Z,3.77
2018-04-06T07:36:22.204Z,5.90
2018-04-06T07:38:51.940Z,4.67
2018-04-06T07:41:21.680Z,4.77
2018-04-06T07:43:51.877Z,5.23
2018-04-06T07:46:21.645Z,3.50
2018-04-06T07:48:51.521Z,6.13
2018-04-06T07:51:21.810Z,4.47
2018-04-06T07:53:51.549Z,4.50
2018-04-06T07:56:22.345Z,4.17
2018-04-06T07:58:51.294Z,4.40
2018-04-06T08:01:21.057Z,3.97
2018-04-06T08:03:50.762Z,4.43
2018-04-06T08:06:20.529Z,5.67
2018-04-06T08:08:50.330Z,4.90
2018-04-06T08:11:20.081Z,3.63
2018-04-06T08:13:49.840Z,6.20
2018-04-06T08:16:19.601Z,3.80
2018-04-06T08:18:49.322Z,3.70
2018-04-06T08:21:19.072Z,4.87
2018-04-06T08:23:48.893Z,4.30
2018-04-06T08:26:18.707Z,4.60
2018-04-06T08:28:48.414Z,3.53
2018-04-06T08:31:18.228Z,4.20
2018-04-06T08:33:47.974Z,3.37
2018-04-06T08:36:17.752Z,3.90
2018-04-06T08:38:47.482Z,2.90
2018-04-06T08:41:17.276Z,5.47
2018-04-06T08:43:47.029Z,4.87
2018-04-06T08:46:16.786Z,3.97
2018-04-06T08:48:46.538Z,5.17
2018-04-06T08:51:16.265Z,5.33
2018-04-06T08:53:46.054Z,3.90
2018-04-06T08:56:15.782Z,4.27
2018-04-06T08:58:45.526Z,4.63
2018-04-06T09:01:15.281Z,4.13
2018-04-06T09:03:45.100Z,5.30
2018-04-06T09:06:14.829Z,3.07
2018-04-06T09:08:44.602Z,3.77
2018-04-06T09:11:14.356Z,4.63
2018-04-06T09:13:44.085Z,4.27
2018-04-06T09:16:13.817Z,3.40
2018-04-06T09:18:43.561Z,3.33
2018-04-06T09:21:13.393Z,3.70
2018-04-06T09:23:43.101Z,4.10
2018-04-06T09:26:12.820Z,3.37
2018-04-06T09:28:42.581Z,3.87
2018-04-06T09:31:12.393Z,3.13
2018-04-06T09:33:42.128Z,3.33
2018-04-06T09:36:11.870Z,3.70
2018-04-06T09:38:41.612Z,2.50
2018-04-06T09:41:11.429Z,3.37
2018-04-06T09:43:41.164Z,2.73
2018-04-06T09:46:10.921Z,3.70
2018-04-06T09:48:40.672Z,4.10
2018-04-06T09:51:10.416Z,4.80
2018-04-06T09:53:40.137Z,4.13
2018-04-06T09:56:09.879Z,3.50
2018-04-06T09:58:39.608Z,4.23
2018-04-06T10:01:09.353Z,4.50
2018-04-06T10:03:39.104Z,3.87
2018-04-06T10:06:08.946Z,4.67
2018-04-06T10:08:38.696Z,4.27
2018-04-06T10:11:08.491Z,3.90
2018-04-06T10:13:38.281Z,3.97
2018-04-06T10:16:08.034Z,3.93
2018-04-06T10:18:37.779Z,4.37
2018-04-06T10:21:07.596Z,3.97
2018-04-06T10:23:37.333Z,9.50
2018-04-06T10:26:07.109Z,10.00
2018-04-06T10:28:36.906Z,6.43
2018-04-06T10:31:06.648Z,7.27
2018-04-06T10:33:36.390Z,5.53
2018-04-06T10:36:06.119Z,8.20
2018-04-06T10:38:35.881Z,9.00
2018-04-06T10:41:05.605Z,6.17
2018-04-06T10:43:35.401Z,5.63
2018-04-06T10:46:05.127Z,4.97
2018-04-06T10:48:34.860Z,9.63
2018-04-06T10:51:04.593Z,4.90
2018-04-06T10:53:34.585Z,3.13
2018-04-06T10:56:04.314Z,4.60
2018-04-06T10:58:34.086Z,3.50
2018-04-06T11:01:03.799Z,6.27
2018-04-06T11:03:33.602Z,6.27
2018-04-06T11:06:03.416Z,4.93
2018-04-06T11:08:33.204Z,6.37
2018-04-06T11:11:03.049Z,5.20
2018-04-06T11:13:32.848Z,3.70
2018-04-06T11:16:02.572Z,3.63
2018-04-06T11:18:32.369Z,5.13
2018-04-06T11:21:02.092Z,3.90
2018-04-06T11:23:31.868Z,3.73
2018-04-06T11:26:01.596Z,4.53
2018-04-06T11:28:31.407Z,4.63
2018-04-06T11:31:01.116Z,4.97
2018-04-06T11:33:30.877Z,8.07
2018-04-06T11:36:00.632Z,3.90
2018-04-06T11:38:30.356Z,3.20
2018-04-06T11:41:00.163Z,3.10
2018-04-06T11:43:29.893Z,3.53
2018-04-06T11:45:59.628Z,3.53
2018-04-06T11:48:29.499Z,4.23
2018-04-06T11:50:59.302Z,3.60
2018-04-06T11:53:29.095Z,2.93
2018-04-06T11:55:58.830Z,4.37
2018-04-06T11:58:28.545Z,4.30
2018-04-06T12:00:58.345Z,2.60
2018-04-06T12:03:28.081Z,3.03
2018-04-06T12:05:57.882Z,3.20
2018-04-06T12:08:27.604Z,3.83
2018-04-06T12:10:57.452Z,4.30
2018-04-06T12:13:27.212Z,3.20
2018-04-06T12:15:56.953Z,2.87
2018-04-06T12:18:26.672Z,6.67
2018-04-06T12:20:56.429Z,3.60
2018-04-06T12:23:26.212Z,4.97
2018-04-06T12:25:56.011Z,3.70
2018-04-06T12:28:25.732Z,5.10
2018-04-06T12:30:55.476Z,4.50
2018-04-06T12:33:25.192Z,3.60
2018-04-06T12:35:54.945Z,4.10
2018-04-06T12:38:24.689Z,3.97
2018-04-06T12:40:54.428Z,3.30
2018-04-06T12:43:24.326Z,4.73
2018-04-06T12:45:54.152Z,4.03
2018-04-06T12:48:23.886Z,4.10
2018-04-06T12:50:53.631Z,3.50
2018-04-06T12:53:23.361Z,4.83
2018-04-06T12:55:53.173Z,4.40
2018-04-06T12:58:22.872Z,3.93
2018-04-06T13:00:52.608Z,3.63
2018-04-06T13:03:25.013Z,5.93
2018-04-06T13:05:54.778Z,3.87
2018-04-06T13:08:24.515Z,6.07
2018-04-06T13:10:54.284Z,7.83
2018-04-06T13:13:24.020Z,4.70
2018-04-06T13:15:53.750Z,3.57
2018-04-06T13:18:23.537Z,6.20
2018-04-06T13:20:53.346Z,5.30
2018-04-06T13:23:23.134Z,5.77
2018-04-06T13:25:52.861Z,4.53
2018-04-06T13:28:22.614Z,4.77
2018-04-06T13:30:52.331Z,7.17
2018-04-06T13:33:22.106Z,6.53
2018-04-06T13:35:51.832Z,4.50
2018-04-06T13:38:21.578Z,4.97
2018-04-06T13:40:51.305Z,4.40
2018-04-06T13:43:21.059Z,3.53
2018-04-06T13:45:50.865Z,4.33
2018-04-06T13:48:20.609Z,5.27
2018-04-06T13:50:50.349Z,6.30
2018-04-06T13:53:20.243Z,7.60
2018-04-06T13:55:49.970Z,8.53
2018-04-06T13:58:19.685Z,6.37
2018-04-06T14:00:49.434Z,5.27
2018-04-06T14:03:19.161Z,4.23
2018-04-06T14:05:48.891Z,4.37
2018-04-06T14:08:18.638Z,5.40
2018-04-06T14:10:48.377Z,4.93
2018-04-06T14:13:18.103Z,5.67
2018-04-06T14:15:47.867Z,6.80
2018-04-06T14:18:17.605Z,4.87
2018-04-06T14:20:47.349Z,5.17
2018-04-06T14:23:17.068Z,6.37
2018-04-06T14:25:46.807Z,4.57
2018-04-06T14:28:16.560Z,8.40
2018-04-06T14:30:46.331Z,5.90
2018-04-06T14:33:16.133Z,5.03
2018-04-06T14:35:45.949Z,5.60
2018-04-06T14:38:15.836Z,6.47
2018-04-06T14:40:45.561Z,5.23
2018-04-06T14:43:15.328Z,5.47
2018-04-06T14:45:45.097Z,5.67
2018-04-06T14:48:14.847Z,7.50
2018-04-06T14:50:44.592Z,7.03
2018-04-06T14:53:14.377Z,7.43
2018-04-06T14:55:44.100Z,9.33
2018-04-06T14:58:13.830Z,9.23
2018-04-06T15:00:43.617Z,9.87
2018-04-06T15:03:13.376Z,5.27
2018-04-06T15:05:43.133Z,5.97
2018-04-06T15:08:12.909Z,6.03
2018-04-06T15:10:42.692Z,8.27
2018-04-06T15:13:12.527Z,6.87
2018-04-06T15:15:42.319Z,9.80
2018-04-06T15:18:12.060Z,7.67
2018-04-06T15:20:41.862Z,6.60
2018-04-06T15:23:11.784Z,10.13
2018-04-06T15:25:41.511Z,6.23
2018-04-06T15:28:11.376Z,8.87
2018-04-06T15:30:41.113Z,7.53
2018-04-06T15:33:10.860Z,10.27
2018-04-06T15:35:40.588Z,7.70
2018-04-06T15:38:10.325Z,7.37
2018-04-06T15:40:40.547Z,7.13
2018-04-06T15:43:10.927Z,5.03
2018-04-06T15:45:40.829Z,6.20
2018-04-06T15:48:10.608Z,6.50
2018-04-06T15:50:40.411Z,7.10
2018-04-06T15:53:10.148Z,6.67
2018-04-06T15:55:39.824Z,6.80
2018-04-06T15:58:09.640Z,6.77
2018-04-06T16:00:39.365Z,5.83
2018-04-06T16:03:09.534Z,5.73
2018-04-06T16:05:39.250Z,7.07
2018-04-06T16:08:08.988Z,7.83
2018-04-06T16:10:38.725Z,6.10
2018-04-06T16:13:08.476Z,5.90
2018-04-06T16:15:38.207Z,5.23
2018-04-06T16:18:08.143Z,5.10
2018-04-06T16:20:37.948Z,5.73
2018-04-06T16:23:08.020Z,7.10
2018-04-06T16:25:37.781Z,6.57
2018-04-06T16:28:07.593Z,5.40
2018-04-06T16:30:37.392Z,5.70
2018-04-06T16:33:07.122Z,5.33
2018-04-06T16:35:36.861Z,5.80
2018-04-06T16:38:06.617Z,5.30
2018-04-06T16:40:36.474Z,6.17
2018-04-06T16:43:06.628Z,5.17
2018-04-06T16:45:36.386Z,5.10
2018-04-06T16:48:06.260Z,4.93
2018-04-06T16:50:35.989Z,5.40
2018-04-06T16:53:05.862Z,5.97
2018-04-06T16:55:35.590Z,6.17
2018-04-06T16:58:06.218Z,5.80
2018-04-06T17:00:36.043Z,6.40
2018-04-06T17:03:05.768Z,5.73
2018-04-06T17:05:35.533Z,5.93
2018-04-06T17:08:05.299Z,5.60
2018-04-06T17:10:35.099Z,4.90
2018-04-06T17:13:04.836Z,6.17
2018-04-06T17:15:34.587Z,8.13
2018-04-06T17:18:04.301Z,6.27
2018-04-06T17:20:34.075Z,5.50
2018-04-06T17:23:03.804Z,6.50
2018-04-06T17:25:33.664Z,6.97
2018-04-06T17:28:03.456Z,4.70
2018-04-06T17:30:33.188Z,8.03
2018-04-06T17:33:03.587Z,7.80
2018-04-06T17:35:33.375Z,6.10
2018-04-06T17:38:03.119Z,5.60
2018-04-06T17:40:32.842Z,7.07
2018-04-06T17:43:02.919Z,6.07
2018-04-06T17:45:32.679Z,4.90
2018-04-06T17:48:02.497Z,4.60
2018-04-06T17:50:32.223Z,5.63
2018-04-06T17:53:01.977Z,7.23
2018-04-06T17:55:31.709Z,5.90
2018-04-06T17:58:01.531Z,6.10
2018-04-06T18:00:31.264Z,6.10
2018-04-06T18:03:00.996Z,5.80
2018-04-06T18:05:30.729Z,5.87
2018-04-06T18:08:00.472Z,4.80
2018-04-06T18:10:30.219Z,4.53
2018-04-06T18:12:59.993Z,5.67
2018-04-06T18:15:29.847Z,5.17
2018-04-06T18:17:59.593Z,6.50
2018-04-06T18:20:29.312Z,6.40
2018-04-06T18:22:59.157Z,4.93
2018-04-06T18:25:28.948Z,6.00
2018-04-06T18:27:58.814Z,4.73
2018-04-06T18:30:28.613Z,4.97
2018-04-06T18:32:58.396Z,6.10
2018-04-06T18:35:28.140Z,5.20
2018-04-06T18:37:57.875Z,5.60
2018-04-06T18:40:27.625Z,6.17
2018-04-06T18:42:57.377Z,5.40
2018-04-06T18:45:27.152Z,6.67
2018-04-06T18:47:56.883Z,6.77
2018-04-06T18:50:26.656Z,6.23
2018-04-06T18:52:56.469Z,4.83
2018-04-06T18:55:26.218Z,5.60
2018-04-06T18:57:55.972Z,5.70
2018-04-06T19:00:25.844Z,4.83
2018-04-06T19:02:55.565Z,5.30
2018-04-06T19:05:25.320Z,6.90
2018-04-06T19:07:55.060Z,6.17
2018-04-06T19:10:24.854Z,5.20
2018-04-06T19:12:54.585Z,5.90
2018-04-06T19:15:24.336Z,4.87
2018-04-06T19:17:54.077Z,4.90
2018-04-06T19:20:23.818Z,5.03
2018-04-06T19:22:53.581Z,5.10
2018-04-06T19:25:23.328Z,5.13
2018-04-06T19:27:53.070Z,6.30
2018-04-06T19:30:22.840Z,5.50
2018-04-06T19:32:52.570Z,5.33
2018-04-06T19:35:22.327Z,5.83
2018-04-06T19:37:52.184Z,6.17
2018-04-06T19:40:21.921Z,5.23
2018-04-06T19:42:51.677Z,4.93
2018-04-06T19:45:21.410Z,5.00
2018-04-06T19:47:51.141Z,5.63
2018-04-06T19:50:20.882Z,5.07
2018-04-06T19:52:50.653Z,4.77
2018-04-06T19:55:20.445Z,5.27
2018-04-06T19:57:50.210Z,5.83
2018-04-06T20:00:19.931Z,6.23
2018-04-06T20:02:49.713Z,6.47
2018-04-06T20:05:19.447Z,4.70
2018-04-06T20:07:49.220Z,6.10
2018-04-06T20:10:18.953Z,5.63
2018-04-06T20:12:48.694Z,6.70
2018-04-06T20:15:18.454Z,5.13
2018-04-06T20:17:48.245Z,6.00
2018-04-06T20:20:18.002Z,5.20
2018-04-06T20:22:47.760Z,6.00
2018-04-06T20:25:17.484Z,5.53
2018-04-06T20:27:47.225Z,5.73
2018-04-06T20:30:16.942Z,5.73
2018-04-06T20:32:46.743Z,6.30
2018-04-06T20:35:16.464Z,6.40
2018-04-06T20:37:46.429Z,5.50
2018-04-06T20:40:16.151Z,5.73
2018-04-06T20:42:45.897Z,5.70
2018-04-06T20:45:15.637Z,6.13
2018-04-06T20:47:45.386Z,6.10
2018-04-06T20:50:15.133Z,5.63
2018-04-06T20:52:44.858Z,5.47
2018-04-06T20:55:14.613Z,5.80
2018-04-06T20:57:44.476Z,5.47
2018-04-06T21:00:14.224Z,5.33
2018-04-06T21:02:43.960Z,5.30
2018-04-06T21:05:13.704Z,6.00
2018-04-06T21:07:43.485Z,5.47
2018-04-06T21:10:13.229Z,5.90
2018-04-06T21:12:43.021Z,6.00
2018-04-06T21:15:12.757Z,5.90
2018-04-06T21:17:42.533Z,6.07
2018-04-06T21:20:12.355Z,5.13
2018-04-06T21:22:42.085Z,6.00
2018-04-06T21:25:11.847Z,5.87
2018-04-06T21:27:41.657Z,5.83
2018-04-06T21:30:11.715Z,6.33
2018-04-06T21:32:41.474Z,6.53
2018-04-06T21:35:11.269Z,9.47
2018-04-06T21:37:41.122Z,5.93
2018-04-06T21:40:11.178Z,5.90
2018-04-06T21:42:40.924Z,5.50
2018-04-06T21:45:10.694Z,6.27
2018-04-06T21:47:40.462Z,6.00
2018-04-06T21:50:10.579Z,5.70
2018-04-06T21:52:40.333Z,5.50
2018-04-06T21:55:10.072Z,6.00
2018-04-06T21:57:39.852Z,5.50
2018-04-06T22:00:10.681Z,5.43
2018-04-06T22:02:40.459Z,6.37
2018-04-06T22:05:10.208Z,5.40
2018-04-06T22:07:40.003Z,5.53
2018-04-06T22:10:10.139Z,7.43
2018-04-06T22:12:39.881Z,6.50
2018-04-06T22:15:09.723Z,6.07
2018-04-06T22:17:39.516Z,5.53
2018-04-06T22:20:09.489Z,6.30
2018-04-06T22:22:39.249Z,6.23
2018-04-06T22:25:08.991Z,5.97
2018-04-06T22:27:38.725Z,6.63
2018-04-06T22:30:09.763Z,6.70
2018-04-06T22:32:39.509Z,6.27
2018-04-06T22:35:09.229Z,6.10
2018-04-06T22:37:38.987Z,6.00
2018-04-06T22:40:09.042Z,6.00
2018-04-06T22:42:38.800Z,6.27
2018-04-06T22:45:08.597Z,5.83
2018-04-06T22:47:38.410Z,6.70
2018-04-06T22:50:08.463Z,6.17
2018-04-06T22:52:38.205Z,5.87
2018-04-06T22:55:07.938Z,7.10
2018-04-06T22:57:37.682Z,6.23
2018-04-06T23:00:07.708Z,6.60
2018-04-06T23:02:37.456Z,6.77
2018-04-06T23:05:07.282Z,6.50
2018-04-06T23:07:37.039Z,6.63
2018-04-06T23:10:07.164Z,6.73
2018-04-06T23:12:36.933Z,7.90
2018-04-06T23:15:06.726Z,9.50
2018-04-06T23:17:36.479Z,8.20
2018-04-06T23:20:06.512Z,8.03
2018-04-06T23:22:36.290Z,8.93
2018-04-06T23:25:06.038Z,8.07
2018-04-06T23:27:35.768Z,8.40
2018-04-06T23:30:05.861Z,9.30
2018-04-06T23:32:35.598Z,8.50
2018-04-06T23:35:05.434Z,8.83
2018-04-06T23:37:35.176Z,9.40
2018-04-06T23:40:05.423Z,8.80
2018-04-06T23:42:35.165Z,11.73
2018-04-06T23:45:04.940Z,8.17
2018-04-06T23:47:34.666Z,7.73
2018-04-06T23:50:04.560Z,8.73
2018-04-06T23:52:34.333Z,12.60
2018-04-06T23:55:04.105Z,15.13
2018-04-06T23:57:33.836Z,13.27
